SCEL/SCL METAR and TAF weather

Enter ICAO airport designator
Station Type Date Time Source
SCEL METAR 2022/10/01 09:00 UTC NOAA

SCEL 010900Z 28002KT CAVOK 09/06 Q1015 NOSIG


Station Type Date Time Source
SCEL Decoded METAR 2022/10/01 09:00 UTC NOAA

Pudahuel, Chile (SCEL) 33-23S 070-47W 476M
Oct 01, 2022 - 05:00 AM EDT / 2022.10.01 0900 UTC
Wind: from the W (280 degrees) at 2 MPH (2 KT):0
Visibility: greater than 7 mile(s):0
Temperature: 48 F (9 C)
Dew Point: 42 F (6 C)
Relative Humidity: 81%
Pressure (altimeter): 29.97 in. Hg (1015 hPa)
ob: SCEL 010900Z 28002KT CAVOK 09/06 Q1015 NOSIG
cycle: 9

Station Type Date Time Source
SCEL TAF 2022/10/01 08:19 UTC NOAA

TAF
AMD SCEL 010708Z 0108/0206 15004KT 8000 NSC TX24/0119Z TN08/0110Z
TEMPO 0108/0112 5000 HZ
BECMG 0113/0115 CAVOK
BECMG 0116/0118 19010KT
BECMG 0201/0203 15005KT

Example: see airport list